sensor_id;sensor_type;location;lat;lon;timestamp;pressure;altitude;pressure_sealevel;temperature;humidity
48216;BME280;34005;48.844;10.098;2023-08-20T00:01:58;97028.50;;;23.55;66.49
48216;BME280;34005;48.844;10.098;2023-08-20T00:04:39;97026.88;;;23.54;66.60
48216;BME280;34005;48.844;10.098;2023-08-20T00:07:15;97026.88;;;23.54;66.31
48216;BME280;34005;48.844;10.098;2023-08-20T00:09:46;97028.72;;;23.54;66.22
48216;BME280;34005;48.844;10.098;2023-08-20T00:12:16;97036.16;;;23.52;66.03
48216;BME280;34005;48.844;10.098;2023-08-20T00:14:55;97032.97;;;23.50;66.45
48216;BME280;34005;48.844;10.098;2023-08-20T00:17:28;97036.13;;;23.47;66.43
48216;BME280;34005;48.844;10.098;2023-08-20T00:20:02;97042.50;;;23.45;66.68
48216;BME280;34005;48.844;10.098;2023-08-20T00:22:38;97035.03;;;23.42;66.83
48216;BME280;34005;48.844;10.098;2023-08-20T00:25:10;97039.81;;;23.40;66.77
48216;BME280;34005;48.844;10.098;2023-08-20T00:27:42;97044.03;;;23.36;67.09
48216;BME280;34005;48.844;10.098;2023-08-20T00:30:17;97039.22;;;23.33;67.20
48216;BME280;34005;48.844;10.098;2023-08-20T00:32:47;97046.09;;;23.29;67.51
48216;BME280;34005;48.844;10.098;2023-08-20T00:35:22;97047.13;;;23.28;67.46
48216;BME280;34005;48.844;10.098;2023-08-20T00:37:54;97045.53;;;23.27;67.50
48216;BME280;34005;48.844;10.098;2023-08-20T00:40:27;97047.13;;;23.28;67.43
48216;BME280;34005;48.844;10.098;2023-08-20T00:42:58;97049.81;;;23.28;67.50
48216;BME280;34005;48.844;10.098;2023-08-20T00:45:30;97053.78;;;23.26;67.82
48216;BME280;34005;48.844;10.098;2023-08-20T00:48:04;97053.47;;;23.22;67.97
48216;BME280;34005;48.844;10.098;2023-08-20T00:50:45;97055.28;;;23.16;68.61
48216;BME280;34005;48.844;10.098;2023-08-20T00:53:19;97060.56;;;23.11;68.17
48216;BME280;34005;48.844;10.098;2023-08-20T00:55:53;97063.94;;;23.07;68.57
48216;BME280;34005;48.844;10.098;2023-08-20T00:58:26;97063.66;;;23.03;68.83
48216;BME280;34005;48.844;10.098;2023-08-20T01:00:59;97064.41;;;22.98;69.00
48216;BME280;34005;48.844;10.098;2023-08-20T01:03:29;97065.38;;;22.92;69.37
48216;BME280;34005;48.844;10.098;2023-08-20T01:06:09;97068.53;;;22.89;69.91
48216;BME280;34005;48.844;10.098;2023-08-20T01:08:44;97067.44;;;22.85;69.63
48216;BME280;34005;48.844;10.098;2023-08-20T01:11:24;97063.41;;;22.82;69.68
48216;BME280;34005;48.844;10.098;2023-08-20T01:13:56;97061.50;;;22.78;69.66
48216;BME280;34005;48.844;10.098;2023-08-20T01:16:27;97064.66;;;22.75;70.08
48216;BME280;34005;48.844;10.098;2023-08-20T01:18:58;97059.03;;;22.71;70.38
48216;BME280;34005;48.844;10.098;2023-08-20T01:21:37;97058.53;;;22.74;70.65
48216;BME280;34005;48.844;10.098;2023-08-20T01:24:22;97060.13;;;22.75;70.60
48216;BME280;34005;48.844;10.098;2023-08-20T01:27:10;97059.91;;;22.77;70.64
48216;BME280;34005;48.844;10.098;2023-08-20T01:29:51;97063.34;;;22.77;70.33
48216;BME280;34005;48.844;10.098;2023-08-20T01:32:24;97063.13;;;22.79;70.47
48216;BME280;34005;48.844;10.098;2023-08-20T01:34:57;97066.31;;;22.81;70.49
48216;BME280;34005;48.844;10.098;2023-08-20T01:37:28;97064.69;;;22.80;70.47
48216;BME280;34005;48.844;10.098;2023-08-20T01:40:01;97070.28;;;22.78;70.58
48216;BME280;34005;48.844;10.098;2023-08-20T01:42:32;97068.34;;;22.74;70.53
48216;BME280;34005;48.844;10.098;2023-08-20T01:45:03;97069.41;;;22.73;70.92
48216;BME280;34005;48.844;10.098;2023-08-20T01:47:35;97075.78;;;22.72;70.91
48216;BME280;34005;48.844;10.098;2023-08-20T01:50:06;97079.00;;;22.74;70.53
48216;BME280;34005;48.844;10.098;2023-08-20T01:52:36;97079.06;;;22.79;70.83
48216;BME280;34005;48.844;10.098;2023-08-20T01:55:15;97076.22;;;22.86;70.27
48216;BME280;34005;48.844;10.098;2023-08-20T01:57:46;97080.78;;;22.90;70.42
48216;BME280;34005;48.844;10.098;2023-08-20T02:00:20;97079.28;;;22.99;69.98
48216;BME280;34005;48.844;10.098;2023-08-20T02:02:51;97086.31;;;23.06;69.43
48216;BME280;34005;48.844;10.098;2023-08-20T02:05:23;97085.25;;;23.07;69.68
48216;BME280;34005;48.844;10.098;2023-08-20T02:07:55;97084.22;;;23.08;69.36
48216;BME280;34005;48.844;10.098;2023-08-20T02:10:27;97090.88;;;23.10;69.54
48216;BME280;34005;48.844;10.098;2023-08-20T02:12:56;97079.44;;;23.10;69.64
48216;BME280;34005;48.844;10.098;2023-08-20T02:15:30;97082.03;;;23.04;69.64
48216;BME280;34005;48.844;10.098;2023-08-20T02:18:06;97085.75;;;23.03;69.75
48216;BME280;34005;48.844;10.098;2023-08-20T02:20:39;97087.50;;;22.98;69.74
48216;BME280;34005;48.844;10.098;2023-08-20T02:23:12;97083.69;;;22.89;69.86
48216;BME280;34005;48.844;10.098;2023-08-20T02:25:43;97081.78;;;22.84;70.02
48216;BME280;34005;48.844;10.098;2023-08-20T02:28:13;97086.84;;;22.86;70.37
48216;BME280;34005;48.844;10.098;2023-08-20T02:30:54;97094.88;;;22.91;70.50
48216;BME280;34005;48.844;10.098;2023-08-20T02:33:28;97094.13;;;22.95;70.53
48216;BME280;34005;48.844;10.098;2023-08-20T02:36:03;97097.69;;;23.01;70.23
48216;BME280;34005;48.844;10.098;2023-08-20T02:38:33;97095.59;;;23.03;70.26
48216;BME280;34005;48.844;10.098;2023-08-20T02:41:04;97091.06;;;23.03;69.80
48216;BME280;34005;48.844;10.098;2023-08-20T02:43:34;97094.25;;;23.00;69.96
48216;BME280;34005;48.844;10.098;2023-08-20T02:46:06;97088.81;;;22.95;70.36
48216;BME280;34005;48.844;10.098;2023-08-20T02:48:36;97088.22;;;22.88;70.44
48216;BME280;34005;48.844;10.098;2023-08-20T02:51:07;97095.06;;;22.84;70.20
48216;BME280;34005;48.844;10.098;2023-08-20T02:53:50;97089.72;;;22.79;70.67
48216;BME280;34005;48.844;10.098;2023-08-20T02:56:20;97089.72;;;22.79;70.58
48216;BME280;34005;48.844;10.098;2023-08-20T02:58:51;97083.88;;;22.82;71.08
48216;BME280;34005;48.844;10.098;2023-08-20T03:01:23;97081.53;;;22.86;70.79
48216;BME280;34005;48.844;10.098;2023-08-20T03:03:54;97082.88;;;22.88;70.59
48216;BME280;34005;48.844;10.098;2023-08-20T03:06:24;97073.84;;;22.89;70.73
48216;BME280;34005;48.844;10.098;2023-08-20T03:08:55;97079.69;;;22.86;70.56
48216;BME280;34005;48.844;10.098;2023-08-20T03:11:25;97074.69;;;22.90;70.99
48216;BME280;34005;48.844;10.098;2023-08-20T03:13:55;97079.00;;;22.96;70.35
48216;BME280;34005;48.844;10.098;2023-08-20T03:16:33;97080.94;;;23.00;70.50
48216;BME280;34005;48.844;10.098;2023-08-20T03:23:25;97078.88;;;23.08;70.37
48216;BME280;34005;48.844;10.098;2023-08-20T03:26:39;97074.13;;;23.10;70.38
48216;BME280;34005;48.844;10.098;2023-08-20T03:29:09;97079.19;;;23.11;69.96
48216;BME280;34005;48.844;10.098;2023-08-20T03:31:41;97079.19;;;23.11;70.18
48216;BME280;34005;48.844;10.098;2023-08-20T03:34:12;97075.72;;;23.11;69.91
48216;BME280;34005;48.844;10.098;2023-08-20T03:36:42;97086.34;;;23.11;70.36
48216;BME280;34005;48.844;10.098;2023-08-20T03:39:13;97078.63;;;23.09;70.30
48216;BME280;34005;48.844;10.098;2023-08-20T03:41:47;97080.00;;;23.12;70.77
48216;BME280;34005;48.844;10.098;2023-08-20T03:44:18;97081.34;;;23.14;70.31
48216;BME280;34005;48.844;10.098;2023-08-20T03:46:50;97075.28;;;23.19;70.01
48216;BME280;34005;48.844;10.098;2023-08-20T03:49:20;97078.72;;;23.19;69.29
48216;BME280;34005;48.844;10.098;2023-08-20T03:51:51;97078.94;;;23.13;69.81
48216;BME280;34005;48.844;10.098;2023-08-20T03:54:21;97064.47;;;23.03;70.52
48216;BME280;34005;48.844;10.098;2023-08-20T03:56:50;97074.78;;;23.00;70.62
48216;BME280;34005;48.844;10.098;2023-08-20T03:59:25;97076.06;;;22.97;70.84
48216;BME280;34005;48.844;10.098;2023-08-20T04:01:57;97074.97;;;22.93;70.86
48216;BME280;34005;48.844;10.098;2023-08-20T04:04:24;97080.00;;;22.90;71.14
48216;BME280;34005;48.844;10.098;2023-08-20T04:06:52;97071.13;;;22.84;70.99
48216;BME280;34005;48.844;10.098;2023-08-20T04:09:20;97073.75;;;22.79;71.25
48216;BME280;34005;48.844;10.098;2023-08-20T04:11:48;97068.34;;;22.74;71.43
48216;BME280;34005;48.844;10.098;2023-08-20T04:14:16;97067.19;;;22.65;71.63
48216;BME280;34005;48.844;10.098;2023-08-20T04:16:43;97065.22;;;22.55;72.29
48216;BME280;34005;48.844;10.098;2023-08-20T04:19:13;97076.28;;;22.47;72.96
48216;BME280;34005;48.844;10.098;2023-08-20T04:21:41;97062.09;;;22.41;73.01
48216;BME280;34005;48.844;10.098;2023-08-20T04:24:08;97068.72;;;22.38;73.49
48216;BME280;34005;48.844;10.098;2023-08-20T04:26:36;97077.25;;;22.40;73.58
48216;BME280;34005;48.844;10.098;2023-08-20T04:29:04;97075.94;;;22.43;73.98
48216;BME280;34005;48.844;10.098;2023-08-20T04:31:32;97083.19;;;22.48;73.52
48216;BME280;34005;48.844;10.098;2023-08-20T04:33:59;97086.16;;;22.51;73.56
48216;BME280;34005;48.844;10.098;2023-08-20T04:36:28;97089.88;;;22.50;73.79
48216;BME280;34005;48.844;10.098;2023-08-20T04:38:56;97092.22;;;22.47;73.27
48216;BME280;34005;48.844;10.098;2023-08-20T04:41:24;97094.00;;;22.41;73.72
48216;BME280;34005;48.844;10.098;2023-08-20T04:43:51;97100.38;;;22.40;73.99
48216;BME280;34005;48.844;10.098;2023-08-20T04:46:19;97100.88;;;22.37;74.05
48216;BME280;34005;48.844;10.098;2023-08-20T04:48:47;97099.25;;;22.36;74.40
48216;BME280;34005;48.844;10.098;2023-08-20T04:51:14;97110.38;;;22.33;73.92
48216;BME280;34005;48.844;10.098;2023-08-20T04:53:43;97115.94;;;22.31;74.48
48216;BME280;34005;48.844;10.098;2023-08-20T04:56:11;97123.66;;;22.33;74.18
48216;BME280;34005;48.844;10.098;2023-08-20T04:58:39;97118.91;;;22.35;74.49
48216;BME280;34005;48.844;10.098;2023-08-20T05:01:09;97119.38;;;22.32;73.92
48216;BME280;34005;48.844;10.098;2023-08-20T05:03:36;97130.28;;;22.30;73.92
48216;BME280;34005;48.844;10.098;2023-08-20T05:06:04;97126.22;;;22.28;74.47
48216;BME280;34005;48.844;10.098;2023-08-20T05:08:32;97116.72;;;22.32;73.96
48216;BME280;34005;48.844;10.098;2023-08-20T05:11:01;97126.63;;;22.36;74.11
48216;BME280;34005;48.844;10.098;2023-08-20T05:13:29;97130.72;;;22.44;74.32
48216;BME280;34005;48.844;10.098;2023-08-20T05:16:06;97131.34;;;22.51;73.42
48216;BME280;34005;48.844;10.098;2023-08-20T05:21:41;97129.88;;;22.60;73.13
48216;BME280;34005;48.844;10.098;2023-08-20T05:24:08;97135.75;;;22.62;72.80
48216;BME280;34005;48.844;10.098;2023-08-20T05:26:37;97130.16;;;22.59;73.03
48216;BME280;34005;48.844;10.098;2023-08-20T05:29:05;97122.66;;;22.56;73.06
48216;BME280;34005;48.844;10.098;2023-08-20T05:31:33;97125.72;;;22.48;73.76
48216;BME280;34005;48.844;10.098;2023-08-20T05:34:01;97120.09;;;22.44;74.01
48216;BME280;34005;48.844;10.098;2023-08-20T05:36:29;97119.31;;;22.44;74.03
48216;BME280;34005;48.844;10.098;2023-08-20T05:38:56;97116.94;;;22.47;74.12
48216;BME280;34005;48.844;10.098;2023-08-20T05:41:24;97119.59;;;22.47;74.19
48216;BME280;34005;48.844;10.098;2023-08-20T05:43:53;97118.00;;;22.46;74.49
48216;BME280;34005;48.844;10.098;2023-08-20T05:46:20;97118.00;;;22.46;74.74
48216;BME280;34005;48.844;10.098;2023-08-20T05:48:48;97121.22;;;22.48;74.73
48216;BME280;34005;48.844;10.098;2023-08-20T05:51:16;97105.56;;;22.52;74.85
48216;BME280;34005;48.844;10.098;2023-08-20T05:53:43;97113.88;;;22.55;74.82
48216;BME280;34005;48.844;10.098;2023-08-20T05:56:11;97109.44;;;22.61;74.44
48216;BME280;34005;48.844;10.098;2023-08-20T05:58:38;97104.41;;;22.65;74.50
48216;BME280;34005;48.844;10.098;2023-08-20T06:01:07;97106.03;;;22.66;75.11
48216;BME280;34005;48.844;10.098;2023-08-20T06:03:35;97109.81;;;22.70;75.14
48216;BME280;34005;48.844;10.098;2023-08-20T06:06:02;97111.53;;;22.81;75.22
48216;BME280;34005;48.844;10.098;2023-08-20T06:08:34;97106.28;;;22.86;74.98
48216;BME280;34005;48.844;10.098;2023-08-20T06:11:02;97105.75;;;22.89;75.20
48216;BME280;34005;48.844;10.098;2023-08-20T06:13:29;97115.94;;;22.92;74.59
48216;BME280;34005;48.844;10.098;2023-08-20T06:15:57;97106.41;;;22.96;74.78
48216;BME280;34005;48.844;10.098;2023-08-20T06:18:26;97115.25;;;23.02;74.63
48216;BME280;34005;48.844;10.098;2023-08-20T06:20:53;97114.03;;;23.10;74.63
48216;BME280;34005;48.844;10.098;2023-08-20T06:23:21;97122.63;;;23.17;74.45
48216;BME280;34005;48.844;10.098;2023-08-20T06:26:08;97121.38;;;23.24;74.39
48216;BME280;34005;48.844;10.098;2023-08-20T06:28:36;97125.44;;;23.32;74.18
48216;BME280;34005;48.844;10.098;2023-08-20T06:31:04;97135.66;;;23.40;74.35
48216;BME280;34005;48.844;10.098;2023-08-20T06:33:33;97137.59;;;23.50;74.17
48216;BME280;34005;48.844;10.098;2023-08-20T06:36:00;97148.59;;;23.59;73.69
48216;BME280;34005;48.844;10.098;2023-08-20T06:38:28;97148.16;;;23.67;73.34
48216;BME280;34005;48.844;10.098;2023-08-20T06:40:57;97150.41;;;23.75;73.22
48216;BME280;34005;48.844;10.098;2023-08-20T06:43:24;97164.84;;;23.84;73.05
48216;BME280;34005;48.844;10.098;2023-08-20T06:45:52;97167.63;;;23.95;72.58
48216;BME280;34005;48.844;10.098;2023-08-20T06:48:19;97169.31;;;24.06;72.72
48216;BME280;34005;48.844;10.098;2023-08-20T06:50:50;97172.06;;;24.16;72.25
48216;BME280;34005;48.844;10.098;2023-08-20T06:53:17;97165.19;;;24.25;72.12
48216;BME280;34005;48.844;10.098;2023-08-20T06:55:45;97167.38;;;24.34;71.68
48216;BME280;34005;48.844;10.098;2023-08-20T06:58:12;97156.78;;;24.44;71.51
48216;BME280;34005;48.844;10.098;2023-08-20T07:00:40;97157.41;;;24.51;70.85
48216;BME280;34005;48.844;10.098;2023-08-20T07:03:07;97162.22;;;24.59;70.94
48216;BME280;34005;48.844;10.098;2023-08-20T07:05:35;97152.66;;;24.68;70.70
48216;BME280;34005;48.844;10.098;2023-08-20T07:08:05;97146.59;;;24.78;70.56
48216;BME280;34005;48.844;10.098;2023-08-20T07:10:33;97144.00;;;24.88;70.22
48216;BME280;34005;48.844;10.098;2023-08-20T07:13:01;97138.41;;;25.00;69.60
48216;BME280;34005;48.844;10.098;2023-08-20T07:15:29;97143.53;;;25.12;68.89
48216;BME280;34005;48.844;10.098;2023-08-20T07:17:57;97138.00;;;25.24;69.19
48216;BME280;34005;48.844;10.098;2023-08-20T07:20:32;97152.44;;;25.38;69.39
48216;BME280;34005;48.844;10.098;2023-08-20T07:23:00;97146.59;;;25.46;68.39
48216;BME280;34005;48.844;10.098;2023-08-20T07:25:32;97152.75;;;25.57;68.37
48216;BME280;34005;48.844;10.098;2023-08-20T07:27:59;97153.56;;;25.68;67.73
48216;BME280;34005;48.844;10.098;2023-08-20T07:30:27;97155.19;;;25.79;66.97
48216;BME280;34005;48.844;10.098;2023-08-20T07:32:56;97165.13;;;25.89;66.65
48216;BME280;34005;48.844;10.098;2023-08-20T07:35:31;97165.41;;;25.98;66.66
48216;BME280;34005;48.844;10.098;2023-08-20T07:37:59;97175.03;;;26.09;66.32
48216;BME280;34005;48.844;10.098;2023-08-20T07:40:26;97170.47;;;26.20;65.62
48216;BME280;34005;48.844;10.098;2023-08-20T07:42:55;97166.72;;;26.31;65.70
48216;BME280;34005;48.844;10.098;2023-08-20T07:45:23;97176.06;;;26.44;65.70
48216;BME280;34005;48.844;10.098;2023-08-20T07:47:51;97167.50;;;26.57;65.32
48216;BME280;34005;48.844;10.098;2023-08-20T07:50:19;97178.19;;;26.73;65.26
48216;BME280;34005;48.844;10.098;2023-08-20T07:52:46;97173.84;;;26.87;64.41
48216;BME280;34005;48.844;10.098;2023-08-20T07:55:14;97174.09;;;27.01;64.29
48216;BME280;34005;48.844;10.098;2023-08-20T07:57:42;97178.28;;;27.17;64.13
48216;BME280;34005;48.844;10.098;2023-08-20T08:00:13;97176.94;;;27.30;64.15
48216;BME280;34005;48.844;10.098;2023-08-20T08:02:41;97179.53;;;27.45;63.64
48216;BME280;34005;48.844;10.098;2023-08-20T08:05:09;97170.59;;;27.60;62.63
48216;BME280;34005;48.844;10.098;2023-08-20T08:07:37;97175.59;;;27.77;62.86
48216;BME280;34005;48.844;10.098;2023-08-20T08:10:05;97175.00;;;27.90;62.15
48216;BME280;34005;48.844;10.098;2023-08-20T08:12:33;97186.97;;;28.03;62.09
48216;BME280;34005;48.844;10.098;2023-08-20T08:15:01;97184.97;;;28.14;61.57
48216;BME280;34005;48.844;10.098;2023-08-20T08:17:30;97184.06;;;28.29;60.67
48216;BME280;34005;48.844;10.098;2023-08-20T08:19:58;97178.84;;;28.43;60.75
48216;BME280;34005;48.844;10.098;2023-08-20T08:22:26;97183.84;;;28.54;59.90
48216;BME280;34005;48.844;10.098;2023-08-20T08:24:53;97188.88;;;28.61;59.82
48216;BME280;34005;48.844;10.098;2023-08-20T08:27:21;97192.53;;;28.70;59.20
48216;BME280;34005;48.844;10.098;2023-08-20T08:29:50;97190.03;;;28.79;58.69
48216;BME280;34005;48.844;10.098;2023-08-20T08:32:17;97189.94;;;28.89;58.54
48216;BME280;34005;48.844;10.098;2023-08-20T08:34:46;97191.13;;;29.02;58.50
48216;BME280;34005;48.844;10.098;2023-08-20T08:37:14;97198.28;;;29.12;58.31
48216;BME280;34005;48.844;10.098;2023-08-20T08:39:42;97191.50;;;29.20;57.49
48216;BME280;34005;48.844;10.098;2023-08-20T08:42:10;97191.34;;;29.30;57.93
48216;BME280;34005;48.844;10.098;2023-08-20T08:44:39;97181.78;;;29.43;57.75
48216;BME280;34005;48.844;10.098;2023-08-20T08:47:07;97182.16;;;29.55;57.28
48216;BME280;34005;48.844;10.098;2023-08-20T08:49:35;97185.22;;;29.67;57.25
48216;BME280;34005;48.844;10.098;2023-08-20T08:52:04;97196.16;;;29.76;56.46
48216;BME280;34005;48.844;10.098;2023-08-20T08:54:33;97203.75;;;29.88;56.20
48216;BME280;34005;48.844;10.098;2023-08-20T08:57:01;97200.94;;;29.98;56.11
48216;BME280;34005;48.844;10.098;2023-08-20T08:59:28;97205.63;;;30.06;55.31
48216;BME280;34005;48.844;10.098;2023-08-20T09:01:56;97202.50;;;30.18;55.56
48216;BME280;34005;48.844;10.098;2023-08-20T09:04:24;97209.34;;;30.29;55.09
48216;BME280;34005;48.844;10.098;2023-08-20T09:06:55;97206.47;;;30.39;55.06
48216;BME280;34005;48.844;10.098;2023-08-20T09:09:29;97205.22;;;30.51;54.98
48216;BME280;34005;48.844;10.098;2023-08-20T09:11:56;97201.53;;;30.60;54.00
48216;BME280;34005;48.844;10.098;2023-08-20T09:14:28;97204.94;;;30.66;53.91
48216;BME280;34005;48.844;10.098;2023-08-20T09:16:56;97207.00;;;30.69;53.65
48216;BME280;34005;48.844;10.098;2023-08-20T09:19:24;97209.13;;;30.72;53.11
48216;BME280;34005;48.844;10.098;2023-08-20T09:21:59;97214.91;;;30.79;52.71
48216;BME280;34005;48.844;10.098;2023-08-20T09:24:32;97203.50;;;30.88;53.09
48216;BME280;34005;48.844;10.098;2023-08-20T09:27:03;97213.03;;;30.94;52.40
48216;BME280;34005;48.844;10.098;2023-08-20T09:29:32;97207.47;;;31.04;52.26
48216;BME280;34005;48.844;10.098;2023-08-20T09:32:01;97208.84;;;31.15;51.98
48216;BME280;34005;48.844;10.098;2023-08-20T09:34:36;97200.88;;;31.24;51.56
48216;BME280;34005;48.844;10.098;2023-08-20T09:37:08;97206.06;;;31.34;50.88
48216;BME280;34005;48.844;10.098;2023-08-20T09:39:37;97215.06;;;31.44;51.03
48216;BME280;34005;48.844;10.098;2023-08-20T09:42:06;97214.06;;;31.53;50.67
48216;BME280;34005;48.844;10.098;2023-08-20T09:44:35;97218.13;;;31.65;49.65
48216;BME280;34005;48.844;10.098;2023-08-20T09:47:06;97215.91;;;31.67;49.54
48216;BME280;34005;48.844;10.098;2023-08-20T09:49:37;97214.59;;;31.78;49.87
48216;BME280;34005;48.844;10.098;2023-08-20T09:52:06;97214.38;;;31.88;48.81
48216;BME280;34005;48.844;10.098;2023-08-20T09:54:45;97224.53;;;31.91;48.87
48216;BME280;34005;48.844;10.098;2023-08-20T09:57:31;97220.53;;;32.02;47.88
48216;BME280;34005;48.844;10.098;2023-08-20T10:00:01;97211.56;;;32.16;48.54
48216;BME280;34005;48.844;10.098;2023-08-20T10:02:29;97210.69;;;32.29;47.77
48216;BME280;34005;48.844;10.098;2023-08-20T10:04:57;97202.84;;;32.41;47.17
48216;BME280;34005;48.844;10.098;2023-08-20T10:07:28;97216.09;;;32.52;47.03
48216;BME280;34005;48.844;10.098;2023-08-20T10:10:02;97209.66;;;32.61;47.38
48216;BME280;34005;48.844;10.098;2023-08-20T10:12:31;97207.28;;;32.69;46.32
48216;BME280;34005;48.844;10.098;2023-08-20T10:15:00;97207.47;;;32.72;46.41
48216;BME280;34005;48.844;10.098;2023-08-20T10:17:29;97205.44;;;32.78;46.05
48216;BME280;34005;48.844;10.098;2023-08-20T10:19:58;97208.16;;;32.78;45.51
48216;BME280;34005;48.844;10.098;2023-08-20T10:22:32;97203.97;;;32.72;46.14
48216;BME280;34005;48.844;10.098;2023-08-20T10:25:05;97210.03;;;32.77;45.45
48216;BME280;34005;48.844;10.098;2023-08-20T10:27:36;97198.13;;;32.78;44.98
48216;BME280;34005;48.844;10.098;2023-08-20T10:30:08;97203.38;;;32.83;45.80
48216;BME280;34005;48.844;10.098;2023-08-20T10:32:46;97201.66;;;32.88;44.95
48216;BME280;34005;48.844;10.098;2023-08-20T10:35:17;97204.22;;;32.93;45.04
48216;BME280;34005;48.844;10.098;2023-08-20T10:38:01;97201.38;;;32.98;45.04
48216;BME280;34005;48.844;10.098;2023-08-20T10:40:51;97198.03;;;33.01;45.21
48216;BME280;34005;48.844;10.098;2023-08-20T10:43:29;97209.22;;;33.08;45.10
48216;BME280;34005;48.844;10.098;2023-08-20T10:46:07;97201.59;;;33.10;45.05
48216;BME280;34005;48.844;10.098;2023-08-20T10:48:38;97193.50;;;33.10;45.37
48216;BME280;34005;48.844;10.098;2023-08-20T10:51:09;97203.69;;;33.13;44.79
48216;BME280;34005;48.844;10.098;2023-08-20T10:53:38;97198.91;;;33.10;44.21
48216;BME280;34005;48.844;10.098;2023-08-20T10:56:12;97194.78;;;33.13;44.46
48216;BME280;34005;48.844;10.098;2023-08-20T10:58:45;97194.78;;;33.21;43.80
48216;BME280;34005;48.844;10.098;2023-08-20T11:01:18;97185.59;;;33.22;43.65
48216;BME280;34005;48.844;10.098;2023-08-20T11:03:48;97185.59;;;33.22;43.85
48216;BME280;34005;48.844;10.098;2023-08-20T11:06:17;97188.28;;;33.22;44.02
48216;BME280;34005;48.844;10.098;2023-08-20T11:08:45;97185.28;;;33.33;44.78
48216;BME280;34005;48.844;10.098;2023-08-20T11:11:14;97180.84;;;33.37;43.47
48216;BME280;34005;48.844;10.098;2023-08-20T11:13:42;97180.84;;;33.37;43.46
48216;BME280;34005;48.844;10.098;2023-08-20T11:16:10;97180.22;;;33.40;43.54
48216;BME280;34005;48.844;10.098;2023-08-20T11:18:38;97181.16;;;33.44;42.71
48216;BME280;34005;48.844;10.098;2023-08-20T11:21:07;97178.59;;;33.48;42.63
48216;BME280;34005;48.844;10.098;2023-08-20T11:23:35;97181.78;;;33.50;42.16
48216;BME280;34005;48.844;10.098;2023-08-20T11:26:07;97179.25;;;33.53;43.35
48216;BME280;34005;48.844;10.098;2023-08-20T11:28:36;97168.94;;;33.55;42.89
48216;BME280;34005;48.844;10.098;2023-08-20T11:31:04;97166.69;;;33.57;42.39
48216;BME280;34005;48.844;10.098;2023-08-20T11:33:31;97176.41;;;33.58;43.17
48216;BME280;34005;48.844;10.098;2023-08-20T11:35:59;97173.56;;;33.63;42.47
48216;BME280;34005;48.844;10.098;2023-08-20T11:38:28;97165.94;;;33.65;42.04
48216;BME280;34005;48.844;10.098;2023-08-20T11:40:57;97167.34;;;33.72;42.82
48216;BME280;34005;48.844;10.098;2023-08-20T11:43:27;97164.97;;;33.79;42.30
48216;BME280;34005;48.844;10.098;2023-08-20T11:45:56;97166.56;;;33.80;41.92
48216;BME280;34005;48.844;10.098;2023-08-20T11:48:23;97161.16;;;33.80;42.05
48216;BME280;34005;48.844;10.098;2023-08-20T11:50:51;97161.16;;;33.80;41.40
48216;BME280;34005;48.844;10.098;2023-08-20T11:53:22;97162.59;;;33.77;41.72
48216;BME280;34005;48.844;10.098;2023-08-20T11:55:50;97160.66;;;33.78;42.90
48216;BME280;34005;48.844;10.098;2023-08-20T11:58:18;97160.66;;;33.78;42.11
48216;BME280;34005;48.844;10.098;2023-08-20T12:00:48;97163.06;;;33.79;42.36
48216;BME280;34005;48.844;10.098;2023-08-20T12:03:19;97160.53;;;33.83;41.84
48216;BME280;34005;48.844;10.098;2023-08-20T12:05:47;97151.28;;;33.84;42.15
48216;BME280;34005;48.844;10.098;2023-08-20T12:08:15;97155.25;;;33.86;41.35
48216;BME280;34005;48.844;10.098;2023-08-20T12:10:44;97148.56;;;33.84;40.74
48216;BME280;34005;48.844;10.098;2023-08-20T12:13:12;97152.88;;;33.85;41.25
48216;BME280;34005;48.844;10.098;2023-08-20T12:15:39;97149.34;;;33.93;41.26
48216;BME280;34005;48.844;10.098;2023-08-20T12:18:07;97141.88;;;33.99;41.12
48216;BME280;34005;48.844;10.098;2023-08-20T12:20:38;97145.84;;;34.01;42.47
48216;BME280;34005;48.844;10.098;2023-08-20T12:23:06;97144.56;;;34.08;42.62
48216;BME280;34005;48.844;10.098;2023-08-20T12:25:35;97136.91;;;34.10;42.13
48216;BME280;34005;48.844;10.098;2023-08-20T12:28:04;97143.63;;;34.12;41.53
48216;BME280;34005;48.844;10.098;2023-08-20T12:30:32;97133.44;;;34.18;41.17
48216;BME280;34005;48.844;10.098;2023-08-20T12:33:04;97135.97;;;34.23;41.28
48216;BME280;34005;48.844;10.098;2023-08-20T12:35:33;97130.72;;;34.26;41.74
48216;BME280;34005;48.844;10.098;2023-08-20T12:38:02;97131.97;;;34.29;40.72
48216;BME280;34005;48.844;10.098;2023-08-20T12:40:30;97127.50;;;34.33;41.33
48216;BME280;34005;48.844;10.098;2023-08-20T12:42:58;97129.56;;;34.36;40.49
48216;BME280;34005;48.844;10.098;2023-08-20T12:45:26;97124.59;;;34.38;40.54
48216;BME280;34005;48.844;10.098;2023-08-20T12:47:54;97123.47;;;34.39;40.68
48216;BME280;34005;48.844;10.098;2023-08-20T12:50:23;97120.28;;;34.37;40.57
48216;BME280;34005;48.844;10.098;2023-08-20T12:52:52;97111.72;;;34.35;41.31
48216;BME280;34005;48.844;10.098;2023-08-20T12:55:21;97115.06;;;34.32;41.53
48216;BME280;34005;48.844;10.098;2023-08-20T12:57:53;97123.03;;;34.29;40.70
48216;BME280;34005;48.844;10.098;2023-08-20T13:00:22;97108.69;;;34.28;40.46
48216;BME280;34005;48.844;10.098;2023-08-20T13:02:52;97118.44;;;34.29;40.38
48216;BME280;34005;48.844;10.098;2023-08-20T13:05:21;97107.75;;;34.24;41.05
48216;BME280;34005;48.844;10.098;2023-08-20T13:07:49;97110.97;;;34.17;41.31
48216;BME280;34005;48.844;10.098;2023-08-20T13:10:18;97109.56;;;34.11;40.70
48216;BME280;34005;48.844;10.098;2023-08-20T13:12:49;97113.34;;;34.10;41.05
48216;BME280;34005;48.844;10.098;2023-08-20T13:15:18;97109.22;;;34.13;41.40